createdAt,value
2022-12-03T00:00:46.132Z,12.27
2022-12-03T00:03:14.575Z,11.80
2022-12-03T00:05:48.882Z,10.00
2022-12-03T00:08:21.167Z,10.10
2022-12-03T00:10:49.005Z,10.60
2022-12-03T00:13:16.852Z,13.10
2022-12-03T00:15:45.252Z,12.27
2022-12-03T00:18:13.190Z,9.70
2022-12-03T00:20:41.049Z,12.05
2022-12-03T00:23:09.278Z,12.90
2022-12-03T00:25:37.031Z,12.85
2022-12-03T00:28:05.055Z,12.15
2022-12-03T00:30:33.313Z,10.65
2022-12-03T00:33:01.348Z,10.05
2022-12-03T00:35:29.218Z,12.68
2022-12-03T00:37:57.449Z,11.63
2022-12-03T00:40:25.316Z,11.77
2022-12-03T00:42:53.105Z,13.62
2022-12-03T00:45:21.248Z,12.73
2022-12-03T00:47:48.916Z,11.23
2022-12-03T00:50:16.827Z,11.20
2022-12-03T00:52:45.030Z,13.57
2022-12-03T00:55:12.847Z,9.90
2022-12-03T00:57:40.727Z,12.77
2022-12-03T01:00:10.243Z,12.30
2022-12-03T01:02:38.070Z,9.52
2022-12-03T01:05:06.943Z,11.05
2022-12-03T01:07:36.584Z,10.65
2022-12-03T01:10:05.960Z,11.27
2022-12-03T01:12:33.562Z,12.20
2022-12-03T01:15:05.696Z,11.73
2022-12-03T01:17:33.497Z,12.63
2022-12-03T01:20:12.047Z,10.35
2022-12-03T01:22:39.788Z,13.40
2022-12-03T01:25:08.272Z,12.63
2022-12-03T01:27:35.997Z,11.15
2022-12-03T01:30:05.329Z,10.20
2022-12-03T01:32:33.457Z,13.60
2022-12-03T01:35:01.543Z,10.80
2022-12-03T01:37:31.718Z,12.73
2022-12-03T01:39:59.864Z,13.52
2022-12-03T01:42:32.015Z,12.05
2022-12-03T01:45:01.724Z,8.15
2022-12-03T01:47:37.186Z,12.67
2022-12-03T01:50:14.878Z,13.57
2022-12-03T01:52:43.043Z,14.13
2022-12-03T01:55:18.554Z,14.77
2022-12-03T01:57:53.154Z,13.98
2022-12-03T02:00:24.152Z,14.13
2022-12-03T02:02:55.701Z,14.30
2022-12-03T02:05:32.767Z,13.40
2022-12-03T02:08:01.261Z,11.23
2022-12-03T02:10:35.170Z,9.88
2022-12-03T02:13:08.068Z,10.60
2022-12-03T02:15:40.420Z,8.90
2022-12-03T02:18:09.401Z,8.38
2022-12-03T02:20:47.409Z,8.93
2022-12-03T02:23:36.773Z,12.65
2022-12-03T02:26:05.115Z,11.52
2022-12-03T02:28:33.205Z,10.00
2022-12-03T02:31:01.165Z,10.52
2022-12-03T02:33:33.049Z,10.88
2022-12-03T02:36:03.782Z,10.45
2022-12-03T02:38:35.626Z,8.95
2022-12-03T02:41:09.737Z,9.05
2022-12-03T02:43:38.879Z,13.00
2022-12-03T02:46:08.572Z,12.43
2022-12-03T02:48:39.106Z,11.00
2022-12-03T02:51:10.923Z,10.18
2022-12-03T02:53:45.839Z,10.65
2022-12-03T02:56:24.781Z,12.02
2022-12-03T02:58:55.394Z,10.82
2022-12-03T03:01:23.898Z,11.10
2022-12-03T03:03:53.132Z,10.50
2022-12-03T03:06:21.757Z,8.68
2022-12-03T03:08:50.299Z,11.35
2022-12-03T03:11:18.070Z,8.30
2022-12-03T03:13:48.767Z,9.73
2022-12-03T03:16:17.065Z,8.38
2022-12-03T03:18:45.144Z,10.98
2022-12-03T03:21:13.512Z,11.40
2022-12-03T03:23:41.679Z,10.48
2022-12-03T03:26:14.852Z,8.93
2022-12-03T03:28:46.673Z,8.27
2022-12-03T03:31:18.366Z,9.73
2022-12-03T03:33:48.547Z,9.32
2022-12-03T03:36:17.143Z,9.68
2022-12-03T03:38:48.191Z,10.38
2022-12-03T03:41:17.142Z,10.13
2022-12-03T03:43:46.513Z,7.85
2022-12-03T03:46:14.915Z,8.32
2022-12-03T03:48:44.145Z,9.35
2022-12-03T03:51:13.517Z,8.75
2022-12-03T03:53:44.709Z,9.88
2022-12-03T03:56:13.138Z,8.73
2022-12-03T03:58:41.204Z,10.23
2022-12-03T04:01:09.888Z,9.77
2022-12-03T04:03:38.177Z,10.07
2022-12-03T04:06:06.643Z,9.52
2022-12-03T04:08:34.482Z,9.00
2022-12-03T04:11:21.541Z,10.45
2022-12-03T04:13:50.562Z,9.35
2022-12-03T04:16:18.738Z,11.38
2022-12-03T04:18:47.906Z,10.10
2022-12-03T04:21:37.254Z,10.48
2022-12-03T04:24:10.388Z,11.35
2022-12-03T04:29:24.966Z,8.68
2022-12-03T04:32:10.965Z,9.88
2022-12-03T04:34:57.696Z,9.55
2022-12-03T04:37:25.496Z,10.55
2022-12-03T04:39:53.770Z,10.23
2022-12-03T04:42:21.842Z,9.20
2022-12-03T04:44:50.456Z,8.68
2022-12-03T04:47:20.931Z,11.10
2022-12-03T04:49:50.868Z,10.90
2022-12-03T04:52:20.258Z,14.15
2022-12-03T04:54:48.184Z,11.10
2022-12-03T04:57:16.135Z,9.75
2022-12-03T04:59:47.143Z,10.85
2022-12-03T05:02:14.937Z,11.10
2022-12-03T05:04:42.743Z,12.37
2022-12-03T05:07:11.675Z,11.90
2022-12-03T05:09:42.539Z,11.70
2022-12-03T05:12:10.608Z,12.70
2022-12-03T05:14:38.710Z,10.48
2022-12-03T05:17:06.717Z,11.98
2022-12-03T05:19:57.520Z,10.13
2022-12-03T05:22:25.714Z,9.10
2022-12-03T05:24:53.719Z,11.38
2022-12-03T05:27:24.567Z,9.45
2022-12-03T05:29:53.222Z,11.75
2022-12-03T05:32:21.264Z,11.23
2022-12-03T05:34:49.127Z,11.60
2022-12-03T05:37:17.388Z,12.37
2022-12-03T05:39:45.336Z,9.95
2022-12-03T05:42:31.464Z,12.77
2022-12-03T05:44:59.634Z,12.93
2022-12-03T05:47:27.505Z,12.80
2022-12-03T05:49:55.380Z,12.05
2022-12-03T05:52:23.636Z,11.18
2022-12-03T05:54:54.766Z,12.45
2022-12-03T05:57:23.096Z,11.45
2022-12-03T05:59:51.022Z,13.48
2022-12-03T06:02:18.921Z,14.10
2022-12-03T06:04:47.027Z,12.43
2022-12-03T06:07:17.967Z,12.68
2022-12-03T06:09:45.758Z,14.32
2022-12-03T06:12:14.068Z,12.90
2022-12-03T06:14:42.091Z,15.52
2022-12-03T06:17:09.888Z,14.15
2022-12-03T06:19:38.315Z,14.48
2022-12-03T06:22:06.157Z,13.98
2022-12-03T06:24:33.882Z,13.13
2022-12-03T06:27:02.061Z,12.90
2022-12-03T06:29:30.021Z,14.55
2022-12-03T06:31:57.843Z,14.18
2022-12-03T06:34:25.876Z,13.85
2022-12-03T06:36:53.756Z,16.27
2022-12-03T06:39:22.220Z,17.73
2022-12-03T06:41:50.463Z,14.18
2022-12-03T06:44:18.339Z,14.35
2022-12-03T06:46:46.416Z,11.93
2022-12-03T06:49:14.613Z,13.95
2022-12-03T06:51:42.391Z,13.45
2022-12-03T06:54:10.209Z,11.75
2022-12-03T06:56:44.893Z,14.95
2022-12-03T06:59:16.963Z,13.45
2022-12-03T07:01:45.315Z,13.80
2022-12-03T07:04:13.156Z,13.62
2022-12-03T07:06:41.010Z,15.60
2022-12-03T07:09:09.078Z,12.85
2022-12-03T07:11:40.809Z,15.00
2022-12-03T07:14:11.737Z,9.25
2022-12-03T07:16:40.468Z,14.55
2022-12-03T07:19:08.454Z,13.80
2022-12-03T07:21:36.596Z,13.73
2022-12-03T07:24:04.549Z,10.88
2022-12-03T07:26:32.380Z,13.68
2022-12-03T07:29:04.301Z,13.02
2022-12-03T07:31:32.219Z,15.30
2022-12-03T07:34:01.675Z,11.38
2022-12-03T07:36:32.593Z,15.07
2022-12-03T07:39:00.776Z,16.92
2022-12-03T07:41:28.529Z,13.98
2022-12-03T07:43:56.812Z,13.77
2022-12-03T07:46:25.171Z,15.00
2022-12-03T07:48:53.002Z,14.25
2022-12-03T07:51:20.963Z,16.37
2022-12-03T07:53:49.104Z,14.00
2022-12-03T07:56:17.008Z,14.87
2022-12-03T07:58:48.142Z,17.58
2022-12-03T08:01:16.240Z,15.73
2022-12-03T08:03:44.615Z,13.35
2022-12-03T08:06:12.412Z,14.25
2022-12-03T08:08:44.013Z,14.35
2022-12-03T08:11:16.860Z,14.85
2022-12-03T08:13:47.896Z,16.37
2022-12-03T08:16:21.913Z,15.55
2022-12-03T08:18:51.159Z,15.05
2022-12-03T08:21:21.852Z,15.88
2022-12-03T08:23:49.852Z,14.35
2022-12-03T08:26:25.471Z,16.75
2022-12-03T08:28:54.279Z,14.63
2022-12-03T08:31:33.536Z,11.93
2022-12-03T08:34:18.424Z,15.85
2022-12-03T08:36:47.885Z,13.98
2022-12-03T08:39:34.272Z,12.27
2022-12-03T08:42:39.190Z,10.40
2022-12-03T08:45:29.530Z,10.70
2022-12-03T08:48:04.215Z,12.65
2022-12-03T08:50:43.942Z,11.73
2022-12-03T08:53:14.656Z,9.60
2022-12-03T08:55:53.717Z,15.43
2022-12-03T08:58:33.673Z,10.13
2022-12-03T09:01:11.248Z,13.75
2022-12-03T09:03:47.068Z,9.68
2022-12-03T09:06:15.262Z,12.73
2022-12-03T09:08:43.448Z,15.40
2022-12-03T09:11:11.430Z,12.10
2022-12-03T09:13:39.793Z,12.80
2022-12-03T09:16:07.978Z,13.18
2022-12-03T09:18:38.912Z,14.23
2022-12-03T09:21:07.652Z,13.77
2022-12-03T09:23:35.685Z,14.45
2022-12-03T09:26:03.461Z,11.23
2022-12-03T09:28:37.670Z,14.30
2022-12-03T09:31:05.579Z,14.90
2022-12-03T09:33:36.913Z,12.73
2022-12-03T09:36:05.126Z,12.65
2022-12-03T09:38:33.533Z,12.70
2022-12-03T09:41:01.469Z,12.23
2022-12-03T09:44:02.856Z,11.95
2022-12-03T09:46:23.402Z,9.35
2022-12-03T09:48:51.640Z,13.27
2022-12-03T09:51:20.432Z,11.68
2022-12-03T09:53:49.896Z,12.20
2022-12-03T09:56:23.642Z,12.52
2022-12-03T09:58:51.992Z,12.70
2022-12-03T10:01:22.433Z,12.77
2022-12-03T10:03:53.873Z,11.12
2022-12-03T10:06:25.024Z,11.15
2022-12-03T10:08:56.514Z,12.55
2022-12-03T10:11:26.131Z,11.10
2022-12-03T10:13:58.930Z,12.48
2022-12-03T10:16:30.460Z,9.80
2022-12-03T10:19:01.212Z,10.70
2022-12-03T10:21:38.312Z,10.38
2022-12-03T10:24:22.076Z,11.57
2022-12-03T10:26:52.212Z,11.73
2022-12-03T10:29:33.615Z,12.40
2022-12-03T10:32:09.599Z,12.50
2022-12-03T10:34:40.696Z,13.30
2022-12-03T10:37:20.577Z,11.48
2022-12-03T10:39:58.054Z,13.82
2022-12-03T10:42:31.746Z,11.52
2022-12-03T10:45:13.010Z,10.27
2022-12-03T10:47:41.382Z,10.50
2022-12-03T10:50:20.554Z,8.82
2022-12-03T10:52:48.557Z,10.02
2022-12-03T10:55:16.946Z,9.77
2022-12-03T10:57:48.568Z,9.57
2022-12-03T11:00:19.677Z,10.10
2022-12-03T11:02:56.773Z,9.98
2022-12-03T11:05:28.662Z,9.23
2022-12-03T11:07:57.342Z,8.88
2022-12-03T11:10:25.632Z,7.50
2022-12-03T11:13:30.794Z,7.97
2022-12-03T11:15:59.909Z,7.50
2022-12-03T11:18:37.238Z,8.27
2022-12-03T11:21:11.834Z,8.60
2022-12-03T11:23:46.323Z,7.50
2022-12-03T11:26:29.458Z,9.05
2022-12-03T11:28:59.007Z,8.60
2022-12-03T11:31:45.442Z,7.57
2022-12-03T11:34:22.954Z,8.77
2022-12-03T11:37:12.596Z,9.63
2022-12-03T11:39:53.349Z,9.55
2022-12-03T11:42:27.679Z,6.43
2022-12-03T11:45:05.697Z,8.23
2022-12-03T11:47:42.601Z,8.68
2022-12-03T11:50:36.128Z,7.62
2022-12-03T11:53:27.255Z,8.32
2022-12-03T11:56:09.321Z,9.20
2022-12-03T11:58:39.900Z,8.52
2022-12-03T12:01:08.821Z,7.78
2022-12-03T12:03:49.629Z,7.15
2022-12-03T12:06:20.800Z,6.90
2022-12-03T12:08:51.793Z,8.20
2022-12-03T12:11:34.382Z,7.95
2022-12-03T12:14:06.246Z,9.13
2022-12-03T12:16:51.670Z,8.63
2022-12-03T12:19:31.951Z,8.93
2022-12-03T12:22:27.463Z,8.68
2022-12-03T12:24:58.085Z,8.55
2022-12-03T12:27:51.317Z,8.10
2022-12-03T12:30:22.061Z,8.75
2022-12-03T12:32:58.088Z,9.45
2022-12-03T12:35:28.455Z,8.15
2022-12-03T12:38:11.074Z,9.45
2022-12-03T12:40:41.105Z,10.07
2022-12-03T12:43:14.412Z,11.98
2022-12-03T12:45:45.827Z,9.65
2022-12-03T12:48:13.661Z,9.15
2022-12-03T12:50:47.361Z,8.95
2022-12-03T12:53:26.601Z,10.55
2022-12-03T12:56:01.923Z,7.32
2022-12-03T12:58:33.668Z,9.25
2022-12-03T13:01:12.243Z,10.68
2022-12-03T13:03:43.789Z,9.50
2022-12-03T13:06:16.303Z,10.15
2022-12-03T13:11:45.974Z,9.70
2022-12-03T13:14:22.630Z,8.00
2022-12-03T13:16:57.160Z,9.57
2022-12-03T13:19:27.630Z,9.63
2022-12-03T13:22:01.901Z,10.15
2022-12-03T13:24:33.423Z,8.43
2022-12-03T13:27:26.027Z,9.38
2022-12-03T13:30:07.716Z,10.05
2022-12-03T13:32:38.220Z,10.77
2022-12-03T13:35:26.593Z,9.57
2022-12-03T13:37:59.353Z,8.55
2022-12-03T13:40:35.243Z,9.07
2022-12-03T13:43:16.094Z,11.15
2022-12-03T13:45:47.466Z,10.15
2022-12-03T13:48:36.041Z,10.38
2022-12-03T13:51:30.187Z,10.20
2022-12-03T13:53:59.612Z,8.55
2022-12-03T13:56:33.334Z,10.57
2022-12-03T13:59:04.708Z,9.98
2022-12-03T14:01:33.025Z,9.95
2022-12-03T14:04:01.761Z,6.37
2022-12-03T14:06:29.731Z,10.65
2022-12-03T14:08:57.673Z,12.45
2022-12-03T14:11:47.220Z,11.85
2022-12-03T14:14:15.127Z,9.57
2022-12-03T14:16:43.614Z,11.20
2022-12-03T14:19:12.049Z,7.30
2022-12-03T14:21:40.275Z,7.65
2022-12-03T14:24:08.671Z,7.25
2022-12-03T14:26:38.812Z,8.93
2022-12-03T14:29:08.955Z,9.82
2022-12-03T14:31:37.481Z,4.22
2022-12-03T14:34:05.319Z,7.57
2022-12-03T14:36:32.958Z,8.02
2022-12-03T14:39:01.093Z,9.00
2022-12-03T14:41:47.341Z,8.57
2022-12-03T14:44:18.485Z,8.43
2022-12-03T14:46:46.368Z,8.88
2022-12-03T14:49:14.729Z,7.03
2022-12-03T14:51:43.053Z,8.73
2022-12-03T14:54:11.126Z,5.82
2022-12-03T14:56:39.016Z,6.12
2022-12-03T14:59:07.206Z,8.07
2022-12-03T15:01:35.197Z,5.22
2022-12-03T15:04:03.452Z,9.02
2022-12-03T15:06:34.641Z,6.78
2022-12-03T15:09:02.935Z,5.15
2022-12-03T15:11:31.186Z,6.32
2022-12-03T15:13:59.033Z,6.32
2022-12-03T15:16:27.042Z,5.60
2022-12-03T15:18:55.396Z,4.28
2022-12-03T15:21:25.781Z,9.70
2022-12-03T15:23:53.469Z,4.47
2022-12-03T15:26:24.651Z,7.32
2022-12-03T15:28:52.735Z,6.18
2022-12-03T15:31:20.984Z,6.37
2022-12-03T15:33:49.481Z,5.45
2022-12-03T15:36:17.422Z,3.90
2022-12-03T15:38:45.300Z,5.07
2022-12-03T15:41:29.419Z,5.37
2022-12-03T15:43:59.498Z,4.53
2022-12-03T15:46:28.285Z,7.18
2022-12-03T15:48:56.598Z,5.60
2022-12-03T15:51:25.158Z,7.03
2022-12-03T15:53:53.606Z,3.35
2022-12-03T15:56:21.513Z,8.02
2022-12-03T15:58:49.314Z,8.02
2022-12-03T16:01:20.487Z,3.90
2022-12-03T16:03:48.899Z,5.82
2022-12-03T16:06:18.482Z,6.35
2022-12-03T16:08:47.039Z,7.03
2022-12-03T16:11:15.342Z,7.50
2022-12-03T16:13:46.509Z,5.47
2022-12-03T16:16:14.991Z,6.32
2022-12-03T16:18:43.920Z,11.15
2022-12-03T16:21:20.821Z,9.13
2022-12-03T16:23:53.717Z,8.15
2022-12-03T16:26:22.224Z,7.78
2022-12-03T16:28:50.310Z,10.27
2022-12-03T16:31:22.041Z,12.30
2022-12-03T16:33:50.170Z,10.32
2022-12-03T16:36:18.463Z,8.63
2022-12-03T16:38:46.542Z,8.55
2022-12-03T16:41:17.665Z,7.30
2022-12-03T16:43:48.696Z,9.87
2022-12-03T16:46:19.451Z,8.77
2022-12-03T16:48:56.648Z,5.17
2022-12-03T16:51:27.879Z,7.35
2022-12-03T16:53:56.119Z,6.53
2022-12-03T16:56:23.996Z,9.07
2022-12-03T16:58:51.975Z,10.95
2022-12-03T17:01:23.712Z,10.63
2022-12-03T17:03:51.682Z,10.32
2022-12-03T17:06:19.979Z,9.45
2022-12-03T17:08:50.052Z,10.20
2022-12-03T17:11:18.619Z,9.25
2022-12-03T17:13:46.547Z,11.93
2022-12-03T17:16:15.016Z,10.88
2022-12-03T17:18:43.197Z,13.13
2022-12-03T17:21:11.195Z,12.27
2022-12-03T17:23:39.582Z,11.60
2022-12-03T17:26:11.277Z,11.88
2022-12-03T17:28:39.583Z,9.27
2022-12-03T17:31:07.518Z,8.98
2022-12-03T17:33:35.448Z,9.80
2022-12-03T17:36:04.298Z,8.95
2022-12-03T17:38:38.638Z,9.20
2022-12-03T17:41:28.181Z,10.13
2022-12-03T17:44:33.377Z,10.57
2022-12-03T17:47:14.657Z,8.38
2022-12-03T17:49:49.860Z,9.77
2022-12-03T17:52:33.386Z,9.50
2022-12-03T17:55:13.193Z,10.73
2022-12-03T17:57:53.697Z,10.60
2022-12-03T18:00:34.295Z,9.60
2022-12-03T18:03:13.438Z,9.77
2022-12-03T18:05:47.329Z,5.70
2022-12-03T18:08:27.731Z,6.60
2022-12-03T18:11:03.721Z,10.55
2022-12-03T18:13:41.045Z,6.93
2022-12-03T18:16:19.261Z,7.65
2022-12-03T18:19:04.642Z,7.80
2022-12-03T18:21:40.198Z,7.68
2022-12-03T18:24:23.429Z,8.15
2022-12-03T18:27:05.458Z,7.80
2022-12-03T18:29:44.549Z,7.18
2022-12-03T18:32:29.203Z,7.97
2022-12-03T18:35:08.964Z,7.18
2022-12-03T18:37:47.851Z,6.32
2022-12-03T18:40:31.112Z,6.57
2022-12-03T18:43:13.600Z,6.87
2022-12-03T18:45:56.655Z,8.63
2022-12-03T18:48:33.683Z,6.87
2022-12-03T18:51:30.101Z,7.50
2022-12-03T18:54:14.895Z,6.53
2022-12-03T18:56:54.618Z,7.07
2022-12-03T18:59:34.760Z,7.20
2022-12-03T19:03:00.671Z,6.85
2022-12-03T19:05:29.939Z,7.97
2022-12-03T19:08:19.603Z,6.80
2022-12-03T19:11:06.746Z,7.15
2022-12-03T19:13:49.239Z,5.68
2022-12-03T19:16:25.249Z,7.75
2022-12-03T19:19:02.776Z,7.22
2022-12-03T19:21:41.307Z,7.12
2022-12-03T19:24:26.573Z,7.43
2022-12-03T19:27:03.408Z,7.57
2022-12-03T19:29:41.617Z,6.65
2022-12-03T19:32:17.578Z,5.28
2022-12-03T19:34:55.781Z,6.32
2022-12-03T19:37:29.663Z,7.65
2022-12-03T19:40:04.693Z,7.18
2022-12-03T19:42:38.878Z,6.62
2022-12-03T19:45:16.170Z,7.53
2022-12-03T19:47:55.114Z,6.85
2022-12-03T19:50:30.049Z,7.10
2022-12-03T19:53:03.853Z,7.78
2022-12-03T19:55:41.353Z,6.00
2022-12-03T19:58:14.557Z,6.03
2022-12-03T20:00:49.523Z,6.55
2022-12-03T20:03:24.550Z,6.60
2022-12-03T20:05:56.418Z,6.53
2022-12-03T20:08:31.529Z,6.80
2022-12-03T20:11:16.183Z,6.55
2022-12-03T20:13:56.285Z,7.00
2022-12-03T20:16:29.407Z,7.40
2022-12-03T20:19:00.037Z,7.40
2022-12-03T20:21:33.267Z,6.25
2022-12-03T20:24:01.499Z,7.45
2022-12-03T20:26:29.871Z,7.97
2022-12-03T20:28:59.024Z,7.93
2022-12-03T20:31:30.064Z,7.78
2022-12-03T20:34:00.623Z,8.55
2022-12-03T20:36:32.848Z,7.10
2022-12-03T20:39:03.281Z,8.70
2022-12-03T20:41:31.872Z,8.88
2022-12-03T20:43:59.670Z,8.82
2022-12-03T20:46:29.960Z,7.40
2022-12-03T20:48:59.172Z,7.87
2022-12-03T20:51:30.359Z,8.73
2022-12-03T20:54:00.414Z,8.73
2022-12-03T20:56:39.576Z,7.75
2022-12-03T20:59:11.264Z,7.18
2022-12-03T21:01:40.375Z,7.35
2022-12-03T21:04:10.225Z,8.65
2022-12-03T21:06:38.087Z,7.30
2022-12-03T21:09:07.447Z,7.03
2022-12-03T21:11:36.722Z,7.43
2022-12-03T21:14:05.307Z,7.05
2022-12-03T21:17:07.279Z,6.97
2022-12-03T21:19:27.966Z,8.35
2022-12-03T21:21:55.832Z,7.22
2022-12-03T21:24:23.732Z,6.95
2022-12-03T21:26:51.840Z,8.07
2022-12-03T21:29:19.648Z,8.88
2022-12-03T21:31:47.345Z,8.88
2022-12-03T21:34:15.670Z,8.10
2022-12-03T21:36:43.660Z,7.72
2022-12-03T21:39:11.554Z,8.13
2022-12-03T21:41:39.764Z,7.80
2022-12-03T21:44:07.633Z,8.48
2022-12-03T21:47:11.086Z,7.15
2022-12-03T21:49:24.100Z,8.73
2022-12-03T21:51:54.670Z,8.40
2022-12-03T21:54:22.549Z,6.85
2022-12-03T21:56:50.754Z,5.68
2022-12-03T21:59:18.665Z,7.45
2022-12-03T22:01:47.458Z,7.55
2022-12-03T22:04:15.886Z,7.55
2022-12-03T22:06:43.769Z,5.43
2022-12-03T22:09:11.641Z,7.22
2022-12-03T22:11:39.821Z,7.75
2022-12-03T22:14:08.846Z,6.40
2022-12-03T22:16:36.791Z,6.53
2022-12-03T22:19:08.014Z,7.00
2022-12-03T22:21:35.946Z,6.85
2022-12-03T22:24:03.852Z,6.75
2022-12-03T22:26:33.440Z,6.60
2022-12-03T22:29:03.070Z,8.75
2022-12-03T22:31:30.911Z,6.62
2022-12-03T22:33:59.155Z,6.72
2022-12-03T22:36:26.909Z,7.97
2022-12-03T22:38:54.780Z,7.20
2022-12-03T22:41:23.469Z,7.62
2022-12-03T22:43:51.260Z,6.72
2022-12-03T22:46:19.155Z,7.87
2022-12-03T22:48:47.936Z,5.50
2022-12-03T22:51:21.784Z,9.20
2022-12-03T22:54:01.380Z,7.60
2022-12-03T22:56:30.837Z,8.23
2022-12-03T22:58:59.381Z,6.07
2022-12-03T23:01:30.227Z,7.97
2022-12-03T23:03:58.801Z,7.35
2022-12-03T23:06:28.276Z,7.35
2022-12-03T23:08:56.977Z,7.55
2022-12-03T23:11:25.982Z,7.03
2022-12-03T23:13:55.103Z,7.37
2022-12-03T23:16:26.586Z,7.53
2022-12-03T23:18:54.934Z,7.67
2022-12-03T23:21:29.911Z,6.40
2022-12-03T23:24:03.897Z,8.68
2022-12-03T23:26:35.936Z,7.00
2022-12-03T23:29:06.305Z,8.10
2022-12-03T23:31:34.865Z,6.95
2022-12-03T23:34:03.056Z,8.57
2022-12-03T23:36:33.013Z,7.43
2022-12-03T23:39:00.841Z,6.47
2022-12-03T23:41:28.720Z,6.65
2022-12-03T23:43:57.388Z,5.90
2022-12-03T23:46:27.566Z,6.85
2022-12-03T23:48:55.646Z,7.43
2022-12-03T23:51:25.056Z,7.18
2022-12-03T23:53:54.419Z,7.47
2022-12-03T23:56:25.668Z,7.57
2022-12-03T23:58:53.915Z,7.37
